Time;durP1;ratioP1;P1;durP2;ratioP2;P2;SDS_P1;SDS_P2;PMS_P1;PMS_P2;Temp;Humidity;BMP_temperature;BMP_pressure;BME280_temperature;BME280_humidity;BME280_pressure;Samples;Min_cycle;Max_cycle;Signal;HPM_P1;HPM_P2
2021/12/01 00:01:36;;;;;;;589.87;559.23;;;9.90;99.90;;;;;;4391030;32;20142;-65
2021/12/01 00:04:03;;;;;;;602.63;571.53;;;9.90;99.90;;;;;;4392434;32;20162;-65
2021/12/01 00:06:30;;;;;;;592.27;561.83;;;10.00;99.90;;;;;;4390586;32;20258;-64
2021/12/01 00:08:57;;;;;;;590.43;559.57;;;10.00;99.90;;;;;;4392554;32;20549;-64
2021/12/01 00:11:24;;;;;;;557.33;528.37;;;10.00;99.90;;;;;;4392642;32;20141;-64
2021/12/01 00:13:51;;;;;;;586.63;555.47;;;10.00;99.90;;;;;;4392448;32;20487;-66
2021/12/01 00:16:19;;;;;;;591.20;559.90;;;10.00;99.90;;;;;;4391826;32;20679;-66
2021/12/01 00:18:46;;;;;;;572.03;542.37;;;10.00;99.90;;;;;;4392572;32;20587;-64
2021/12/01 00:21:13;;;;;;;598.23;567.27;;;10.00;99.90;;;;;;4392662;32;20147;-66
2021/12/01 00:23:40;;;;;;;580.80;550.53;;;10.10;99.90;;;;;;4391910;32;20144;-64
2021/12/01 00:26:07;;;;;;;574.33;544.70;;;10.10;99.90;;;;;;4390908;32;20567;-64
2021/12/01 00:28:33;;;;;;;582.10;551.77;;;10.10;99.90;;;;;;4392429;32;20164;-64
2021/12/01 00:31:01;;;;;;;591.93;561.07;;;10.10;99.90;;;;;;4392324;32;20171;-65
2021/12/01 00:33:29;;;;;;;582.93;552.73;;;10.10;99.90;;;;;;4390220;32;20504;-64
2021/12/01 00:35:58;;;;;;;606.70;574.40;;;10.10;99.90;;;;;;4392094;32;20577;-65
2021/12/01 00:38:26;;;;;;;585.97;554.67;;;10.10;99.90;;;;;;4389407;32;20238;-65
2021/12/01 00:40:53;;;;;;;600.10;568.50;;;10.10;99.90;;;;;;4388609;32;20181;-65
2021/12/01 00:43:23;;;;;;;595.70;564.83;;;10.10;99.90;;;;;;4375562;32;20199;-66
2021/12/01 00:45:54;;;;;;;596.30;564.77;;;10.10;99.90;;;;;;4375640;32;20180;-65
2021/12/01 00:48:21;;;;;;;603.70;572.23;;;10.10;99.90;;;;;;4385887;32;20180;-65
2021/12/01 00:50:51;;;;;;;586.10;555.57;;;10.20;99.90;;;;;;4390330;32;20156;-64
2021/12/01 00:53:18;;;;;;;602.57;570.87;;;10.10;99.90;;;;;;4390406;32;20159;-64
2021/12/01 00:55:45;;;;;;;599.70;568.17;;;10.20;99.90;;;;;;4386812;32;20172;-65
2021/12/01 00:58:12;;;;;;;602.30;570.77;;;10.20;99.90;;;;;;4389961;32;20488;-67
2021/12/01 01:00:42;;;;;;;578.60;548.90;;;10.20;99.90;;;;;;4390494;32;20163;-64
2021/12/01 01:03:09;;;;;;;584.23;554.37;;;10.20;99.90;;;;;;4390383;32;20227;-64
2021/12/01 01:05:37;;;;;;;585.10;554.47;;;10.20;99.90;;;;;;4390417;32;20141;-65
2021/12/01 01:08:06;;;;;;;592.17;561.33;;;10.20;99.90;;;;;;4389705;32;20269;-65
2021/12/01 01:11:08;;;;;;;594.43;563.23;;;10.20;99.90;;;;;;4392191;32;20148;-65
2021/12/01 01:16:25;;;;;;;587.00;556.73;;;10.20;99.90;;;;;;4391831;32;20154;-65
2021/12/01 01:18:56;;;;;;;584.10;553.93;;;10.20;99.90;;;;;;4390813;32;20141;-65
2021/12/01 01:21:26;;;;;;;579.23;548.90;;;10.20;99.90;;;;;;4391997;32;20174;-65
2021/12/01 01:23:55;;;;;;;594.37;563.23;;;10.20;99.90;;;;;;4390047;32;20148;-66
2021/12/01 01:26:22;;;;;;;604.63;573.67;;;10.20;99.90;;;;;;4390326;32;20140;-65
2021/12/01 01:28:50;;;;;;;597.40;566.60;;;10.10;99.90;;;;;;4386100;32;20210;-65
2021/12/01 01:31:18;;;;;;;607.37;576.37;;;10.20;99.90;;;;;;4392025;32;20154;-65
2021/12/01 01:33:45;;;;;;;598.23;567.80;;;10.10;99.90;;;;;;4391869;32;20143;-66
2021/12/01 01:36:12;;;;;;;611.97;579.60;;;10.10;99.90;;;;;;4391864;32;20611;-65
2021/12/01 01:38:40;;;;;;;617.73;585.93;;;10.20;99.90;;;;;;4390164;32;20490;-64
2021/12/01 01:41:10;;;;;;;616.60;584.80;;;10.10;99.90;;;;;;4391582;32;20169;-65
2021/12/01 01:43:40;;;;;;;606.97;576.63;;;10.20;99.90;;;;;;4391873;32;20142;-66
2021/12/01 01:46:07;;;;;;;621.87;589.10;;;10.10;99.90;;;;;;4391836;32;20174;-66
2021/12/01 01:48:45;;;;;;;595.03;564.13;;;10.10;99.90;;;;;;4391581;32;20154;-65
2021/12/01 01:51:12;;;;;;;598.90;568.23;;;10.10;99.90;;;;;;4390103;32;20239;-65
2021/12/01 01:53:40;;;;;;;595.83;565.37;;;10.20;99.90;;;;;;4391713;32;20240;-65
2021/12/01 01:56:09;;;;;;;619.37;587.27;;;10.10;99.90;;;;;;4391597;32;20185;-65
2021/12/01 01:58:36;;;;;;;612.67;580.63;;;10.10;99.90;;;;;;4390182;32;20148;-65
2021/12/01 02:01:07;;;;;;;618.87;586.50;;;10.10;99.90;;;;;;4391852;32;20138;-65
2021/12/01 02:03:37;;;;;;;602.57;570.63;;;10.10;99.90;;;;;;4392856;32;20175;-66
2021/12/01 02:06:04;;;;;;;615.43;581.87;;;10.10;99.90;;;;;;4394588;32;20218;-65
2021/12/01 02:08:32;;;;;;;606.10;574.43;;;10.00;99.90;;;;;;4394031;32;20302;-65
2021/12/01 02:11:01;;;;;;;608.23;576.00;;;10.00;99.90;;;;;;4392695;32;20503;-65
2021/12/01 02:13:29;;;;;;;601.07;569.73;;;10.10;99.90;;;;;;4394136;32;20521;-66
2021/12/01 02:15:57;;;;;;;599.60;568.67;;;10.00;99.90;;;;;;4392230;32;20152;-66
2021/12/01 02:18:24;;;;;;;619.67;587.60;;;10.00;99.90;;;;;;4392662;32;20629;-65
2021/12/01 02:21:03;;;;;;;611.47;579.97;;;10.00;99.90;;;;;;4389665;32;20160;-66
2021/12/01 02:23:30;;;;;;;618.27;586.03;;;9.90;99.90;;;;;;4395972;32;20144;-65
2021/12/01 02:25:57;;;;;;;612.77;581.53;;;9.90;99.90;;;;;;4409405;32;20166;-65
2021/12/01 02:28:24;;;;;;;601.13;570.17;;;9.90;99.90;;;;;;4389447;32;20199;-65
2021/12/01 02:30:51;;;;;;;623.20;591.00;;;9.80;99.90;;;;;;4387615;32;20602;-66
2021/12/01 02:33:18;;;;;;;619.23;587.57;;;9.80;99.90;;;;;;4393198;32;20240;-66
2021/12/01 02:35:44;;;;;;;604.53;573.90;;;9.80;99.90;;;;;;4392028;32;20223;-67
2021/12/01 02:38:13;;;;;;;605.60;574.93;;;9.80;99.90;;;;;;4392398;32;20211;-66
2021/12/01 02:40:40;;;;;;;596.83;567.07;;;9.80;99.90;;;;;;4391358;32;20151;-65
2021/12/01 02:43:06;;;;;;;602.80;572.00;;;9.80;99.90;;;;;;4392199;32;20212;-65
2021/12/01 02:45:33;;;;;;;614.23;582.57;;;9.80;99.90;;;;;;4393910;32;20140;-66
2021/12/01 02:48:00;;;;;;;610.57;578.80;;;9.80;99.90;;;;;;4393431;32;20590;-65
2021/12/01 02:50:27;;;;;;;613.30;581.83;;;9.80;99.90;;;;;;4393547;32;20148;-66
2021/12/01 02:52:54;;;;;;;607.87;576.53;;;9.70;99.90;;;;;;4391888;32;20190;-65
2021/12/01 02:55:23;;;;;;;620.73;588.70;;;9.70;99.90;;;;;;4393848;32;20213;-65
2021/12/01 02:57:52;;;;;;;617.30;584.93;;;9.70;99.90;;;;;;4393730;32;20137;-66
2021/12/01 03:00:21;;;;;;;607.77;576.43;;;9.70;99.90;;;;;;4393292;32;20476;-65
2021/12/01 03:02:48;;;;;;;611.43;579.57;;;9.70;99.90;;;;;;4391821;32;20136;-65
2021/12/01 03:05:17;;;;;;;612.53;580.67;;;9.70;99.90;;;;;;4392046;32;20163;-64
2021/12/01 03:07:44;;;;;;;603.90;572.57;;;9.70;99.90;;;;;;4393002;32;20657;-66
2021/12/01 03:10:12;;;;;;;625.23;592.80;;;9.60;99.90;;;;;;4391359;32;20204;-64
2021/12/01 03:12:42;;;;;;;611.20;579.57;;;9.70;99.90;;;;;;4391793;32;20142;-66
2021/12/01 03:15:12;;;;;;;609.90;578.40;;;9.60;99.90;;;;;;4393405;32;20154;-66
2021/12/01 03:17:39;;;;;;;572.13;543.83;;;9.60;99.90;;;;;;4391237;32;20168;-65
2021/12/01 03:20:10;;;;;;;569.50;541.83;;;9.50;99.90;;;;;;4391208;32;20178;-66
2021/12/01 03:22:37;;;;;;;538.90;513.10;;;9.50;99.90;;;;;;4390545;32;20346;-65
2021/12/01 03:25:09;;;;;;;553.40;526.80;;;9.50;99.90;;;;;;4393017;32;20516;-66
2021/12/01 03:27:37;;;;;;;526.80;501.87;;;9.50;99.90;;;;;;4392653;32;20180;-64
2021/12/01 03:30:07;;;;;;;457.47;436.93;;;9.50;99.90;;;;;;4391458;32;20555;-66
2021/12/01 03:32:34;;;;;;;440.47;421.07;;;9.50;99.90;;;;;;4392605;32;20219;-65
2021/12/01 03:35:02;;;;;;;416.27;398.17;;;9.50;99.90;;;;;;4391426;32;20228;-65
2021/12/01 03:37:29;;;;;;;401.63;384.20;;;9.50;99.90;;;;;;4393078;32;20583;-66
2021/12/01 03:39:58;;;;;;;401.63;384.40;;;9.40;99.90;;;;;;4390798;32;20177;-64
2021/12/01 03:42:25;;;;;;;394.47;377.47;;;9.40;99.90;;;;;;4391433;32;20154;-65
2021/12/01 03:44:53;;;;;;;384.53;368.17;;;9.40;99.90;;;;;;4393130;32;20462;-65
2021/12/01 03:47:21;;;;;;;380.47;364.17;;;9.40;99.90;;;;;;4391309;32;20223;-66
2021/12/01 03:49:48;;;;;;;362.57;347.27;;;9.40;99.90;;;;;;4392345;32;20186;-65
2021/12/01 03:52:16;;;;;;;360.37;345.17;;;9.40;99.90;;;;;;4392788;32;20167;-64
2021/12/01 03:54:43;;;;;;;352.43;337.50;;;9.30;99.90;;;;;;4392610;32;20147;-63
2021/12/01 03:57:10;;;;;;;355.27;340.40;;;9.30;99.90;;;;;;4390909;32;20254;-64
2021/12/01 03:59:37;;;;;;;342.10;327.67;;;9.30;99.90;;;;;;4390743;32;20237;-65
2021/12/01 04:02:04;;;;;;;353.70;338.77;;;9.30;99.90;;;;;;4391313;32;20468;-64
2021/12/01 04:04:33;;;;;;;324.67;311.03;;;9.30;99.90;;;;;;4390969;32;20209;-65
2021/12/01 04:07:00;;;;;;;341.70;327.37;;;9.30;99.90;;;;;;4392928;32;20215;-65
2021/12/01 04:09:28;;;;;;;330.27;316.30;;;9.30;99.90;;;;;;4391156;32;20156;-65
2021/12/01 04:11:55;;;;;;;314.77;301.60;;;9.30;99.90;;;;;;4390499;32;20248;-66
2021/12/01 04:14:22;;;;;;;311.20;298.27;;;9.30;99.90;;;;;;4390761;32;20219;-65
2021/12/01 04:16:49;;;;;;;331.80;318.10;;;9.20;99.90;;;;;;4392495;32;20212;-65
2021/12/01 04:19:16;;;;;;;330.27;316.70;;;9.30;99.90;;;;;;4392590;32;20558;-66
2021/12/01 04:21:45;;;;;;;325.17;311.80;;;9.20;99.90;;;;;;4392029;32;20182;-65
2021/12/01 04:24:12;;;;;;;329.47;315.73;;;9.20;99.90;;;;;;4379467;32;20207;-65
2021/12/01 04:26:38;;;;;;;325.17;311.33;;;9.20;99.90;;;;;;4377310;32;20216;-66
2021/12/01 04:29:06;;;;;;;315.60;302.67;;;9.10;99.90;;;;;;4375743;32;20162;-65
2021/12/01 04:31:35;;;;;;;310.77;297.97;;;9.10;99.90;;;;;;4388556;32;20190;-65
2021/12/01 04:34:03;;;;;;;279.93;268.47;;;9.10;99.90;;;;;;4392549;32;20175;-65
2021/12/01 04:36:33;;;;;;;294.63;282.60;;;9.10;99.90;;;;;;4390715;32;20168;-65
2021/12/01 04:39:03;;;;;;;262.77;251.83;;;9.10;99.90;;;;;;4390762;32;20153;-65
2021/12/01 04:41:36;;;;;;;298.90;286.60;;;9.00;99.90;;;;;;4391789;32;20558;-66
2021/12/01 04:44:08;;;;;;;289.23;277.00;;;9.00;99.90;;;;;;4390539;32;20215;-64
2021/12/01 04:46:40;;;;;;;255.67;245.07;;;9.00;99.90;;;;;;4390327;32;20166;-66
2021/12/01 04:49:07;;;;;;;266.90;255.77;;;9.00;99.90;;;;;;4391083;32;20163;-64
2021/12/01 04:51:34;;;;;;;267.67;256.47;;;9.00;99.90;;;;;;4391581;32;20166;-64
2021/12/01 04:54:02;;;;;;;255.63;244.73;;;9.00;99.90;;;;;;4392264;32;20140;-67
2021/12/01 04:56:29;;;;;;;269.70;258.03;;;9.00;99.90;;;;;;4389133;32;20228;-65
2021/12/01 04:58:56;;;;;;;272.67;261.07;;;8.90;99.90;;;;;;4391745;32;20168;-63
2021/12/01 05:01:23;;;;;;;263.63;252.27;;;9.00;99.90;;;;;;4391496;32;20221;-65
2021/12/01 05:03:50;;;;;;;260.77;249.53;;;9.00;99.90;;;;;;4390421;32;20159;-65
2021/12/01 05:06:17;;;;;;;260.10;248.80;;;9.00;99.90;;;;;;4390033;32;20247;-64
2021/12/01 05:08:45;;;;;;;270.03;258.60;;;9.00;99.90;;;;;;4390397;32;20222;-65
2021/12/01 05:11:13;;;;;;;237.50;227.33;;;8.90;99.90;;;;;;4390152;32;20137;-65
2021/12/01 05:13:40;;;;;;;238.33;227.87;;;8.90;99.90;;;;;;4392124;32;20216;-66
2021/12/01 05:16:07;;;;;;;214.67;205.40;;;8.80;99.90;;;;;;4390356;32;20218;-64
2021/12/01 05:18:33;;;;;;;264.40;253.40;;;8.80;99.90;;;;;;4389679;32;20165;-65
2021/12/01 05:21:00;;;;;;;262.77;251.60;;;8.80;99.90;;;;;;4390173;32;20156;-67
2021/12/01 05:23:27;;;;;;;254.13;243.43;;;8.80;99.90;;;;;;4382529;32;20146;-67
2021/12/01 05:25:54;;;;;;;249.10;238.50;;;8.80;99.90;;;;;;4375616;32;20583;-66
2021/12/01 05:28:22;;;;;;;236.83;226.50;;;8.80;99.90;;;;;;4378906;32;20142;-66
2021/12/01 05:30:50;;;;;;;221.97;212.27;;;8.80;99.90;;;;;;4391390;32;20142;-66
2021/12/01 05:33:16;;;;;;;239.23;229.03;;;8.70;99.90;;;;;;4391434;32;20161;-66
2021/12/01 05:35:46;;;;;;;231.33;221.53;;;8.80;99.90;;;;;;4391779;32;20569;-66
2021/12/01 05:38:13;;;;;;;223.97;214.20;;;8.70;99.90;;;;;;4394449;32;20183;-66
2021/12/01 05:40:39;;;;;;;235.43;225.27;;;8.80;99.90;;;;;;4392414;32;20187;-66
2021/12/01 05:43:07;;;;;;;234.83;224.73;;;8.80;99.90;;;;;;4393249;32;20173;-66
2021/12/01 05:45:36;;;;;;;243.90;233.50;;;8.80;99.90;;;;;;4393781;32;20242;-66
2021/12/01 05:48:03;;;;;;;232.73;222.77;;;8.80;99.90;;;;;;4392925;32;20164;-66
2021/12/01 05:50:30;;;;;;;243.07;232.70;;;8.80;99.90;;;;;;4394295;32;20229;-66
2021/12/01 05:52:57;;;;;;;226.23;216.57;;;8.80;99.90;;;;;;4394458;32;20182;-65
2021/12/01 05:55:23;;;;;;;263.50;252.40;;;8.80;99.90;;;;;;4392969;32;20150;-65
2021/12/01 05:57:52;;;;;;;242.57;232.17;;;8.80;99.90;;;;;;4394270;32;20227;-64
2021/12/01 06:00:19;;;;;;;211.13;201.73;;;8.80;99.90;;;;;;4392540;32;20550;-64
2021/12/01 06:02:50;;;;;;;223.50;213.87;;;8.80;99.90;;;;;;4394542;32;20138;-65
2021/12/01 06:05:17;;;;;;;226.50;216.83;;;8.80;99.90;;;;;;4392765;32;20164;-65
2021/12/01 06:07:44;;;;;;;214.03;204.37;;;8.80;99.90;;;;;;4394403;32;20200;-67
2021/12/01 06:10:11;;;;;;;247.40;236.73;;;8.80;99.90;;;;;;4394417;32;20178;-67
2021/12/01 06:12:39;;;;;;;205.17;196.23;;;8.80;99.90;;;;;;4390047;32;20156;-65
2021/12/01 06:15:08;;;;;;;191.83;183.33;;;8.80;99.90;;;;;;4385468;32;20159;-65
2021/12/01 06:17:36;;;;;;;209.17;199.90;;;8.80;99.90;;;;;;4386085;32;20170;-66
2021/12/01 06:20:07;;;;;;;214.50;205.20;;;8.90;99.90;;;;;;4388449;32;20228;-65
2021/12/01 06:22:34;;;;;;;186.60;178.20;;;8.80;99.90;;;;;;4386726;32;20141;-65
2021/12/01 06:25:01;;;;;;;179.10;171.13;;;8.80;99.90;;;;;;4391743;32;20165;-65
2021/12/01 06:27:28;;;;;;;175.40;167.60;;;8.80;99.90;;;;;;4389320;32;20505;-65
2021/12/01 06:29:55;;;;;;;173.23;165.13;;;8.80;99.90;;;;;;4387066;32;20229;-66
2021/12/01 06:32:23;;;;;;;174.27;166.60;;;8.80;99.90;;;;;;4390474;32;20156;-65
2021/12/01 06:34:49;;;;;;;167.80;160.13;;;8.80;99.90;;;;;;4388400;32;20160;-65
2021/12/01 06:37:18;;;;;;;158.80;151.63;;;8.80;99.90;;;;;;4386651;32;20167;-64
2021/12/01 06:39:46;;;;;;;166.70;159.40;;;8.90;99.90;;;;;;4388544;32;20643;-66
2021/12/01 06:42:13;;;;;;;163.53;156.07;;;8.90;99.90;;;;;;4387870;32;20322;-64
2021/12/01 06:44:40;;;;;;;163.33;155.77;;;8.90;99.90;;;;;;4390549;32;20171;-64
2021/12/01 06:47:07;;;;;;;155.57;148.57;;;8.80;99.90;;;;;;4386324;32;20185;-65
2021/12/01 06:49:34;;;;;;;152.73;145.93;;;8.90;99.90;;;;;;4388345;32;20168;-66
2021/12/01 06:52:01;;;;;;;149.07;142.07;;;8.90;99.90;;;;;;4389550;32;20192;-66
2021/12/01 06:54:29;;;;;;;141.20;134.57;;;8.90;99.90;;;;;;4391366;32;20627;-64
2021/12/01 06:56:56;;;;;;;146.00;139.13;;;8.90;99.90;;;;;;4390497;32;20234;-66
2021/12/01 06:59:23;;;;;;;139.17;132.70;;;8.90;99.90;;;;;;4392430;32;20517;-67
2021/12/01 07:01:51;;;;;;;151.17;143.93;;;8.90;99.90;;;;;;4390073;32;20170;-66
2021/12/01 07:04:17;;;;;;;122.53;116.37;;;9.00;99.90;;;;;;4389725;32;20156;-67
2021/12/01 07:06:44;;;;;;;130.47;124.23;;;8.90;99.90;;;;;;4390966;32;20225;-67
2021/12/01 07:09:18;;;;;;;123.33;117.53;;;9.00;99.90;;;;;;4387629;32;20179;-67
2021/12/01 07:11:46;;;;;;;142.27;135.63;;;9.00;99.90;;;;;;4386737;32;20155;-66
2021/12/01 07:14:13;;;;;;;174.80;166.63;;;9.00;99.90;;;;;;4389923;32;20239;-66
2021/12/01 07:16:40;;;;;;;161.33;153.80;;;9.00;99.90;;;;;;4387443;32;20529;-66
2021/12/01 07:19:07;;;;;;;124.63;118.63;;;9.00;99.90;;;;;;4388349;32;20570;-67
2021/12/01 07:21:35;;;;;;;117.33;111.70;;;9.00;99.90;;;;;;4389045;32;20205;-66
2021/12/01 07:24:03;;;;;;;131.97;125.70;;;9.00;99.90;;;;;;4389128;32;20639;-66
2021/12/01 07:26:30;;;;;;;152.03;145.10;;;9.00;99.90;;;;;;4391651;32;20524;-64
2021/12/01 07:28:59;;;;;;;151.03;144.17;;;9.00;99.90;;;;;;4392480;32;20155;-64
2021/12/01 07:31:26;;;;;;;135.77;129.47;;;9.00;99.90;;;;;;4391370;32;20568;-64
2021/12/01 07:33:53;;;;;;;142.73;136.37;;;9.10;99.90;;;;;;4392283;32;20501;-65
2021/12/01 07:36:20;;;;;;;127.20;121.40;;;9.00;99.90;;;;;;4384948;32;20438;-65
2021/12/01 07:38:47;;;;;;;137.13;131.13;;;9.10;99.90;;;;;;4388997;32;20152;-67
2021/12/01 07:41:14;;;;;;;137.80;131.43;;;9.10;99.90;;;;;;4396759;32;20199;-67
2021/12/01 07:43:41;;;;;;;143.17;136.77;;;9.10;99.90;;;;;;4391428;32;20144;-65
2021/12/01 07:46:09;;;;;;;138.97;132.50;;;9.10;99.90;;;;;;4388724;32;20215;-65
2021/12/01 07:48:37;;;;;;;129.10;123.40;;;9.10;99.90;;;;;;4388821;32;20151;-64
2021/12/01 07:51:04;;;;;;;125.23;119.60;;;9.10;99.90;;;;;;4387509;32;20189;-65
2021/12/01 07:53:34;;;;;;;135.63;129.57;;;9.10;99.90;;;;;;4386423;32;20222;-65
2021/12/01 07:56:03;;;;;;;136.10;129.90;;;9.20;99.90;;;;;;4386948;32;20160;-66
2021/12/01 07:58:30;;;;;;;137.50;130.90;;;9.20;99.90;;;;;;4382032;32;20163;-66
2021/12/01 08:00:57;;;;;;;129.17;122.93;;;9.20;99.90;;;;;;4386161;32;20222;-66
2021/12/01 08:03:25;;;;;;;125.47;119.57;;;9.20;99.90;;;;;;4388045;32;20184;-65
2021/12/01 08:05:52;;;;;;;129.60;123.80;;;9.20;99.90;;;;;;4384553;32;20159;-64
2021/12/01 08:08:19;;;;;;;128.63;122.63;;;9.30;99.90;;;;;;4389148;32;20482;-66
2021/12/01 08:10:46;;;;;;;131.43;125.43;;;9.30;99.90;;;;;;4386485;32;20167;-65
2021/12/01 08:13:13;;;;;;;124.27;118.03;;;9.30;99.90;;;;;;4387691;32;20196;-65
2021/12/01 08:15:40;;;;;;;115.73;109.40;;;9.30;99.90;;;;;;4386105;32;20191;-65
2021/12/01 08:18:07;;;;;;;136.47;129.67;;;9.30;99.90;;;;;;4385033;32;20202;-65
2021/12/01 08:20:37;;;;;;;132.90;126.23;;;9.30;99.90;;;;;;4387590;32;20586;-64
2021/12/01 08:23:04;;;;;;;131.07;124.53;;;9.30;99.90;;;;;;4385124;32;20255;-65
2021/12/01 08:25:31;;;;;;;116.13;110.63;;;9.30;99.90;;;;;;4384210;32;20168;-65
2021/12/01 08:28:00;;;;;;;117.77;112.17;;;9.30;99.90;;;;;;4387596;32;20820;-65
2021/12/01 08:30:27;;;;;;;104.87;99.83;;;9.30;99.90;;;;;;4389540;32;20172;-66
2021/12/01 08:32:54;;;;;;;119.47;113.60;;;9.30;99.90;;;;;;4387071;32;20196;-66
2021/12/01 08:35:21;;;;;;;124.40;118.47;;;9.30;99.90;;;;;;4385992;32;20181;-65
2021/12/01 08:37:50;;;;;;;136.00;129.40;;;9.20;99.90;;;;;;4382795;32;20225;-66
2021/12/01 08:40:18;;;;;;;129.10;123.13;;;9.20;99.90;;;;;;4388185;32;20597;-66
2021/12/01 08:42:46;;;;;;;139.50;133.00;;;9.20;99.90;;;;;;4385956;32;20160;-66
2021/12/01 08:45:13;;;;;;;136.73;129.93;;;9.10;99.90;;;;;;4390033;32;20623;-66
2021/12/01 08:47:40;;;;;;;133.27;126.73;;;9.00;99.90;;;;;;4391758;32;20599;-66
2021/12/01 08:50:09;;;;;;;150.33;143.07;;;9.00;99.90;;;;;;4390011;32;20196;-67
2021/12/01 08:52:35;;;;;;;141.77;135.17;;;8.90;99.90;;;;;;4391214;32;20156;-67
2021/12/01 08:55:04;;;;;;;151.40;144.17;;;8.90;99.90;;;;;;4390709;32;20160;-67
2021/12/01 08:57:32;;;;;;;165.27;157.47;;;8.80;99.90;;;;;;4384040;32;20585;-66
2021/12/01 08:59:59;;;;;;;160.03;152.90;;;8.80;99.90;;;;;;4375807;32;20515;-67
2021/12/01 09:02:25;;;;;;;170.53;162.93;;;8.80;99.90;;;;;;4388564;32;20156;-66
2021/12/01 09:04:52;;;;;;;180.63;172.87;;;8.80;99.90;;;;;;4390281;32;20193;-65
2021/12/01 09:07:20;;;;;;;198.93;190.43;;;8.80;99.90;;;;;;4391959;32;20601;-66
2021/12/01 09:09:47;;;;;;;198.63;190.30;;;8.80;99.90;;;;;;4392344;32;20229;-66
2021/12/01 09:12:16;;;;;;;74.00;70.50;;;8.80;99.90;;;;;;4395327;32;20220;-68
2021/12/01 09:14:44;;;;;;;83.93;78.83;;;8.80;99.90;;;;;;4393452;32;20500;-67
2021/12/01 09:17:12;;;;;;;97.80;93.37;;;8.80;99.90;;;;;;4393538;32;20231;-67
2021/12/01 09:19:40;;;;;;;104.43;99.40;;;8.70;99.90;;;;;;4394157;32;20517;-66
2021/12/01 09:22:07;;;;;;;105.47;100.73;;;8.70;99.90;;;;;;4382950;32;20181;-67
2021/12/01 09:24:34;;;;;;;104.73;99.90;;;8.60;99.90;;;;;;4378928;32;20208;-66
2021/12/01 09:27:01;;;;;;;76.27;72.57;;;8.70;99.90;;;;;;4378262;32;20217;-65
2021/12/01 09:29:30;;;;;;;138.27;132.50;;;9.00;99.90;;;;;;4386731;32;20157;-65
2021/12/01 09:31:58;;;;;;;155.97;149.30;;;9.30;99.90;;;;;;4394639;32;20179;-67
2021/12/01 09:34:25;;;;;;;165.13;157.93;;;9.40;99.90;;;;;;4393260;32;20568;-67
2021/12/01 09:36:52;;;;;;;173.30;165.83;;;9.50;99.90;;;;;;4394521;32;20180;-66
2021/12/01 09:39:19;;;;;;;195.87;187.97;;;9.60;99.90;;;;;;4395703;32;20595;-65
2021/12/01 09:41:46;;;;;;;198.50;189.77;;;9.70;99.90;;;;;;4392194;32;20185;-66
2021/12/01 09:44:14;;;;;;;224.67;215.43;;;9.70;99.90;;;;;;4388758;32;20183;-65
2021/12/01 09:46:42;;;;;;;242.87;232.03;;;9.70;99.90;;;;;;4385853;32;20151;-66
2021/12/01 09:49:11;;;;;;;246.03;236.17;;;9.60;99.90;;;;;;4389527;32;20182;-67
2021/12/01 09:51:41;;;;;;;297.97;285.50;;;9.60;99.90;;;;;;4386660;32;20657;-66
2021/12/01 09:54:08;;;;;;;300.87;288.27;;;9.40;99.90;;;;;;4386123;32;20189;-66
2021/12/01 09:56:35;;;;;;;294.77;282.43;;;9.20;99.90;;;;;;4386361;32;20195;-64
2021/12/01 09:59:04;;;;;;;285.77;273.80;;;9.00;99.90;;;;;;4389422;32;20216;-65
2021/12/01 10:01:32;;;;;;;244.63;234.33;;;8.90;99.90;;;;;;4390520;32;20254;-65
2021/12/01 10:04:00;;;;;;;249.77;239.37;;;8.80;99.90;;;;;;4391958;32;20176;-67
2021/12/01 10:06:28;;;;;;;203.57;194.97;;;8.80;99.90;;;;;;4388443;32;20179;-67
2021/12/01 10:08:56;;;;;;;209.33;200.37;;;8.80;99.90;;;;;;4385415;32;20534;-66
2021/12/01 10:11:25;;;;;;;213.77;204.37;;;8.80;99.90;;;;;;4387323;32;20191;-65
2021/12/01 10:13:55;;;;;;;158.73;151.57;;;8.80;99.90;;;;;;4384705;32;20154;-64
2021/12/01 10:16:23;;;;;;;129.93;124.57;;;8.90;99.90;;;;;;4385900;32;20216;-64
2021/12/01 10:18:53;;;;;;;145.10;139.00;;;9.00;99.90;;;;;;4391424;32;20214;-66
2021/12/01 10:21:23;;;;;;;176.77;169.30;;;9.00;99.90;;;;;;4386163;32;20162;-65
2021/12/01 10:23:52;;;;;;;185.77;177.90;;;8.90;99.90;;;;;;4384366;32;20186;-66
2021/12/01 10:26:24;;;;;;;192.63;184.20;;;8.80;99.90;;;;;;4386354;32;20212;-64
2021/12/01 10:28:53;;;;;;;184.83;176.53;;;8.70;99.90;;;;;;4388954;32;20193;-65
2021/12/01 10:31:34;;;;;;;133.77;127.60;;;8.70;99.90;;;;;;4393767;32;20181;-65
2021/12/01 10:34:19;;;;;;;131.53;125.43;;;8.80;99.90;;;;;;4392397;32;20157;-64
2021/12/01 10:36:50;;;;;;;128.50;122.97;;;9.00;99.90;;;;;;4386517;32;20188;-64
2021/12/01 10:39:17;;;;;;;138.93;132.40;;;9.00;99.90;;;;;;4384902;32;20152;-65
2021/12/01 10:41:45;;;;;;;120.60;115.10;;;9.10;99.90;;;;;;4387864;32;20706;-65
2021/12/01 10:44:13;;;;;;;136.77;130.80;;;9.20;99.90;;;;;;4386620;32;20280;-65
2021/12/01 10:46:46;;;;;;;175.50;167.40;;;9.40;99.90;;;;;;4386812;32;20175;-66
2021/12/01 10:49:14;;;;;;;231.97;221.40;;;9.60;99.90;;;;;;4383680;32;20180;-66
2021/12/01 10:51:43;;;;;;;281.43;269.67;;;9.40;99.90;;;;;;4389379;32;20164;-67
2021/12/01 10:54:18;;;;;;;250.07;239.23;;;9.30;99.90;;;;;;4388375;32;20238;-66
2021/12/01 10:56:45;;;;;;;244.67;234.57;;;9.30;99.90;;;;;;4387196;32;20244;-66
2021/12/01 10:59:13;;;;;;;239.13;229.07;;;9.40;99.90;;;;;;4386969;32;20219;-66
2021/12/01 11:01:40;;;;;;;260.03;249.37;;;9.60;99.90;;;;;;4389182;32;20200;-65
2021/12/01 11:04:07;;;;;;;291.90;279.80;;;9.70;99.90;;;;;;4381402;32;20187;-65
2021/12/01 11:06:40;;;;;;;316.67;302.83;;;9.80;99.90;;;;;;4379492;32;20157;-65
2021/12/01 11:09:07;;;;;;;312.27;297.90;;;9.70;99.90;;;;;;4401291;32;20613;-66
2021/12/01 11:11:41;;;;;;;280.53;268.10;;;9.60;99.90;;;;;;4392430;32;20491;-66
2021/12/01 11:14:11;;;;;;;297.80;285.37;;;9.60;99.90;;;;;;4392072;32;20155;-64
2021/12/01 11:16:41;;;;;;;256.27;245.57;;;9.40;99.90;;;;;;4391177;32;20176;-64
2021/12/01 11:19:09;;;;;;;272.47;261.33;;;9.40;99.90;;;;;;4390672;32;20165;-64
2021/12/01 11:21:40;;;;;;;267.00;255.63;;;9.30;99.90;;;;;;4392535;32;20661;-65
2021/12/01 11:24:09;;;;;;;235.77;225.57;;;9.30;99.90;;;;;;4393058;32;20182;-64
2021/12/01 11:26:42;;;;;;;231.60;221.00;;;9.40;99.90;;;;;;4391376;32;20184;-64
2021/12/01 11:29:12;;;;;;;212.73;203.40;;;9.30;99.90;;;;;;4404911;32;20156;-66
2021/12/01 11:31:42;;;;;;;261.73;250.30;;;9.50;99.90;;;;;;4385863;32;20620;-65
2021/12/01 11:34:12;;;;;;;254.87;243.17;;;9.50;99.90;;;;;;4395039;32;20213;-65
2021/12/01 11:36:43;;;;;;;287.43;274.60;;;9.60;99.90;;;;;;4392573;32;20500;-65
2021/12/01 11:39:12;;;;;;;294.27;281.43;;;9.60;99.90;;;;;;4391693;32;20156;-64
2021/12/01 11:41:43;;;;;;;291.73;279.37;;;9.70;99.90;;;;;;4391995;32;20178;-65
2021/12/01 11:44:11;;;;;;;316.63;303.10;;;9.50;99.90;;;;;;4391893;32;20167;-63
2021/12/01 11:46:38;;;;;;;294.43;281.57;;;9.40;99.90;;;;;;4382707;32;20171;-65
2021/12/01 11:49:09;;;;;;;312.60;299.40;;;9.40;99.90;;;;;;4408309;32;20619;-65
2021/12/01 11:51:44;;;;;;;288.30;275.73;;;9.30;99.90;;;;;;4408143;32;20205;-64
2021/12/01 11:54:13;;;;;;;301.27;288.83;;;9.30;99.90;;;;;;4396165;32;20210;-63
2021/12/01 11:56:51;;;;;;;302.43;289.93;;;9.30;99.90;;;;;;4390746;32;20156;-64
2021/12/01 12:02:26;;;;;;;287.83;275.87;;;9.30;99.90;;;;;;4335895;33;20470;-67
2021/12/01 12:04:55;;;;;;;306.03;292.63;;;9.30;99.90;;;;;;4352220;33;20227;-64
2021/12/01 12:07:31;;;;;;;302.90;289.60;;;9.30;99.90;;;;;;4350073;32;20177;-64
2021/12/01 12:10:16;;;;;;;286.80;274.63;;;9.40;99.90;;;;;;4350461;32;20223;-67
2021/12/01 12:12:59;;;;;;;305.00;292.43;;;9.40;99.90;;;;;;4347786;33;20166;-65
2021/12/01 12:15:45;;;;;;;279.97;267.33;;;9.40;99.90;;;;;;4344393;33;20747;-66
2021/12/01 12:18:14;;;;;;;316.10;302.07;;;9.30;99.90;;;;;;4346118;32;20199;-66
2021/12/01 12:20:45;;;;;;;288.37;276.17;;;9.20;99.90;;;;;;4348637;33;20296;-64
2021/12/01 12:23:14;;;;;;;303.63;290.93;;;9.20;99.90;;;;;;4349961;32;20197;-64
2021/12/01 12:25:51;;;;;;;295.93;283.63;;;9.20;99.90;;;;;;4344601;32;20562;-65
2021/12/01 12:28:28;;;;;;;293.03;281.00;;;9.10;99.90;;;;;;4393257;32;20152;-65